Time;durP1;ratioP1;P1;durP2;ratioP2;P2;SDS_P1;SDS_P2;PMS_P1;PMS_P2;Temp;Humidity;BMP_temperature;BMP_pressure;BME280_temperature;BME280_humidity;BME280_pressure;Samples;Min_cycle;Max_cycle;Signal;HPM_P1;HPM_P2
2021/05/05 00:00:33;;;;;;;6.75;2.25;;;;;;;9.62;65.68;99061.22;1755273;81;21276;-69
2021/05/05 00:03:01;;;;;;;6.58;2.00;;;;;;;9.54;65.82;99064.85;1785846;80;21562;-69
2021/05/05 00:05:27;;;;;;;4.25;2.08;;;;;;;9.45;65.95;99066.86;1755075;81;21199;-69
2021/05/05 00:07:54;;;;;;;5.22;1.87;;;;;;;9.39;66.06;99070.28;1785987;80;21153;-69
2021/05/05 00:10:20;;;;;;;3.05;2.08;;;;;;;9.32;66.19;99070.75;1736090;81;21577;-69
2021/05/05 00:12:47;;;;;;;7.47;4.20;;;;;;;9.26;66.29;99072.03;1756549;81;21194;-69
2021/05/05 00:15:17;;;;;;;10.20;4.92;;;;;;;9.22;66.42;99068.15;1756602;81;21164;-69
2021/05/05 00:17:43;;;;;;;7.20;3.55;;;;;;;9.20;66.51;99068.33;1750001;81;21188;-69
2021/05/05 00:20:10;;;;;;;6.72;3.70;;;;;;;9.15;66.60;99062.75;1753846;81;21180;-69
2021/05/05 00:22:37;;;;;;;9.63;3.60;;;;;;;9.12;66.69;99059.16;1753952;81;21633;-69
2021/05/05 00:25:05;;;;;;;8.50;3.40;;;;;;;9.09;66.80;99056.05;1759226;80;21186;-69
2021/05/05 00:27:31;;;;;;;4.42;2.40;;;;;;;9.03;66.88;99051.84;1762331;81;21118;-69
2021/05/05 00:29:58;;;;;;;8.93;2.77;;;;;;;8.98;66.97;99056.08;1761719;81;21152;-69
2021/05/05 00:32:24;;;;;;;8.20;2.55;;;;;;;8.92;67.07;99050.20;1761432;81;21127;-69
2021/05/05 00:34:50;;;;;;;6.28;2.58;;;;;;;8.85;67.18;99048.00;1761786;81;21195;-69
2021/05/05 00:37:17;;;;;;;6.05;2.92;;;;;;;8.82;67.31;99051.05;1761300;81;21181;-69
2021/05/05 00:39:43;;;;;;;9.38;2.55;;;;;;;8.77;67.39;99049.45;1762304;80;21195;-69
2021/05/05 00:42:09;;;;;;;8.83;3.30;;;;;;;8.74;67.49;99049.84;1761794;80;21131;-69
2021/05/05 00:44:36;;;;;;;6.90;2.50;;;;;;;8.71;67.59;99046.24;1761627;81;21149;-69
2021/05/05 00:47:02;;;;;;;4.92;2.45;;;;;;;8.70;67.68;99048.08;1761652;81;21163;-69
2021/05/05 00:49:29;;;;;;;6.75;3.00;;;;;;;8.65;67.76;99037.21;1761633;81;21168;-69
2021/05/05 00:51:55;;;;;;;5.47;2.85;;;;;;;8.62;67.84;99036.77;1767327;80;21167;-69
2021/05/05 00:54:21;;;;;;;4.25;2.58;;;;;;;8.60;67.96;99040.11;1792770;80;21514;-69
2021/05/05 00:56:47;;;;;;;5.00;2.92;;;;;;;8.61;68.02;99039.10;1793036;80;21160;-69
2021/05/05 00:59:14;;;;;;;6.70;2.47;;;;;;;8.57;68.07;99033.85;1761438;81;21516;-69
2021/05/05 01:01:42;;;;;;;5.37;2.47;;;;;;;8.55;68.12;99038.02;1793044;80;21184;-69
2021/05/05 01:04:10;;;;;;;6.87;2.87;;;;;;;8.49;68.18;99035.63;1792842;80;21158;-69
2021/05/05 01:06:36;;;;;;;6.12;3.37;;;;;;;8.46;68.25;99029.36;1759991;81;21167;-69
2021/05/05 01:09:04;;;;;;;6.78;3.52;;;;;;;8.46;68.31;99040.48;1792998;80;21131;-69
2021/05/05 01:11:30;;;;;;;6.05;2.98;;;;;;;8.47;68.37;99035.50;1760080;81;21553;-69
2021/05/05 01:13:57;;;;;;;5.50;2.80;;;;;;;8.48;68.38;99043.27;1793103;80;21192;-69
2021/05/05 01:16:24;;;;;;;9.25;2.12;;;;;;;8.48;68.40;99040.61;1792375;80;21148;-69
2021/05/05 01:18:51;;;;;;;5.22;2.70;;;;;;;8.50;68.43;99042.59;1727414;82;21185;-68
2021/05/05 01:21:18;;;;;;;7.10;2.47;;;;;;;8.47;68.40;99035.00;1755816;80;21155;-69
2021/05/05 01:23:45;;;;;;;3.12;1.47;;;;;;;8.45;68.41;99037.01;1728310;81;21207;-69
2021/05/05 01:26:11;;;;;;;3.00;1.62;;;;;;;8.46;68.40;99037.33;1787130;80;22029;-69
2021/05/05 01:28:40;;;;;;;4.42;1.98;;;;;;;8.49;68.37;99040.94;1783466;80;21644;-69
2021/05/05 01:31:08;;;;;;;3.77;1.80;;;;;;;8.49;68.32;99045.42;1736187;81;21172;-69
2021/05/05 01:33:35;;;;;;;3.87;2.08;;;;;;;8.47;68.27;99044.30;1725699;83;21183;-69
2021/05/05 01:36:01;;;;;;;7.47;3.33;;;;;;;8.42;68.24;99040.05;1751088;81;21102;-69
2021/05/05 01:38:28;;;;;;;5.47;2.52;;;;;;;8.39;68.22;99039.10;1786859;80;21199;-69
2021/05/05 01:40:54;;;;;;;3.42;1.82;;;;;;;8.40;68.20;99038.59;1786936;80;21115;-69
2021/05/05 01:43:20;;;;;;;8.20;2.37;;;;;;;8.40;68.18;99039.43;1787187;80;21143;-68
2021/05/05 01:45:47;;;;;;;4.45;2.20;;;;;;;8.39;68.15;99031.13;1787065;80;21131;-69
2021/05/05 01:48:15;;;;;;;4.67;2.15;;;;;;;8.36;68.13;99027.53;1774050;80;21614;-68
2021/05/05 01:50:42;;;;;;;6.80;1.90;;;;;;;8.35;68.12;99027.20;1742014;81;21202;-69
2021/05/05 01:53:08;;;;;;;7.15;2.60;;;;;;;8.35;68.08;99027.20;1757762;80;21177;-69
2021/05/05 01:55:34;;;;;;;3.35;1.67;;;;;;;8.33;68.06;99031.90;1755928;81;21155;-68
2021/05/05 01:58:00;;;;;;;4.25;1.80;;;;;;;8.34;68.09;99030.86;1755977;81;21175;-68
2021/05/05 02:00:29;;;;;;;3.62;2.15;;;;;;;8.34;68.07;99029.53;1755914;81;21152;-69
2021/05/05 02:02:56;;;;;;;4.45;1.80;;;;;;;8.34;68.06;99028.21;1755744;81;21597;-68
2021/05/05 02:05:22;;;;;;;6.05;2.75;;;;;;;8.36;68.02;99033.34;1755990;81;21137;-68
2021/05/05 02:07:48;;;;;;;7.35;2.50;;;;;;;8.36;67.99;99032.84;1755693;81;21152;-69
2021/05/05 02:10:17;;;;;;;7.47;2.60;;;;;;;8.36;67.93;99029.36;1756001;81;21685;-68
2021/05/05 02:12:43;;;;;;;3.02;1.52;;;;;;;8.34;67.89;99032.19;1756524;80;21619;-68
2021/05/05 02:15:11;;;;;;;3.80;1.80;;;;;;;8.34;67.84;99033.52;1755950;81;21246;-68
2021/05/05 02:17:38;;;;;;;3.00;1.52;;;;;;;8.30;67.79;99032.25;1756244;80;21629;-69
2021/05/05 02:20:08;;;;;;;3.45;1.00;;;;;;;8.28;67.76;99032.95;1740499;82;21785;-69
2021/05/05 02:22:35;;;;;;;5.08;1.20;;;;;;;8.27;67.73;99028.61;1737706;82;21160;-69
2021/05/05 02:25:01;;;;;;;5.33;1.10;;;;;;;8.28;67.67;99031.63;1737309;82;21167;-69
2021/05/05 02:27:28;;;;;;;2.95;1.02;;;;;;;8.27;67.65;99023.30;1737681;82;21296;-69
2021/05/05 02:29:54;;;;;;;4.25;1.57;;;;;;;8.27;67.63;99027.82;1737316;82;21187;-69
2021/05/05 02:32:22;;;;;;;5.80;1.30;;;;;;;8.26;67.60;99021.68;1737622;82;21204;-69
2021/05/05 02:34:48;;;;;;;3.10;0.98;;;;;;;8.26;67.58;99019.53;1736222;82;21147;-69
2021/05/05 02:37:14;;;;;;;3.77;1.17;;;;;;;8.26;67.56;99020.35;1706801;84;21652;-69
2021/05/05 02:39:42;;;;;;;5.50;1.45;;;;;;;8.25;67.52;99017.87;1735949;82;22493;-68
2021/05/05 02:42:11;;;;;;;3.27;1.35;;;;;;;8.22;67.51;99019.08;1706783;84;21167;-68
2021/05/05 02:44:37;;;;;;;4.30;1.20;;;;;;;8.19;67.49;99018.13;1735854;82;21600;-69
2021/05/05 02:47:04;;;;;;;4.72;1.65;;;;;;;8.15;67.47;99018.69;1735631;82;21183;-69
2021/05/05 02:49:31;;;;;;;5.30;1.10;;;;;;;8.12;67.48;99019.90;1735814;82;21207;-69
2021/05/05 02:52:00;;;;;;;3.47;1.10;;;;;;;8.08;67.49;99021.28;1735621;82;21420;-69
2021/05/05 02:54:28;;;;;;;2.80;0.85;;;;;;;8.04;67.47;99019.50;1735800;82;21620;-69
2021/05/05 02:56:55;;;;;;;6.28;1.10;;;;;;;8.03;67.50;99021.83;1735792;82;21524;-68
2021/05/05 02:59:22;;;;;;;2.25;0.88;;;;;;;8.07;67.47;99027.59;1735590;82;21123;-68
2021/05/05 03:01:48;;;;;;;3.50;1.15;;;;;;;8.07;67.47;99016.97;1735783;82;21143;-69
2021/05/05 03:04:14;;;;;;;5.12;1.10;;;;;;;8.05;67.47;99016.34;1735915;82;22091;-68
2021/05/05 03:06:41;;;;;;;2.20;0.93;;;;;;;8.04;67.46;99017.34;1706769;83;21181;-69
2021/05/05 03:09:07;;;;;;;4.42;1.00;;;;;;;8.00;67.47;99021.38;1735865;82;21176;-69
2021/05/05 03:11:34;;;;;;;3.83;1.02;;;;;;;7.96;67.51;99019.61;1706718;84;21588;-69
2021/05/05 03:14:00;;;;;;;3.50;1.02;;;;;;;7.96;67.55;99020.94;1735977;82;21230;-68
2021/05/05 03:16:26;;;;;;;2.02;0.95;;;;;;;7.95;67.56;99011.84;1735988;82;21210;-69
2021/05/05 03:18:53;;;;;;;5.47;0.75;;;;;;;7.92;67.59;99004.23;1726660;81;21164;-68
2021/05/05 03:21:19;;;;;;;7.33;1.62;;;;;;;7.93;67.62;99007.22;1784846;80;21175;-68
2021/05/05 03:23:46;;;;;;;2.17;0.85;;;;;;;7.92;67.63;99009.04;1754237;81;21200;-68
2021/05/05 03:26:12;;;;;;;2.77;1.00;;;;;;;7.92;67.63;99009.54;1785308;80;21164;-68
2021/05/05 03:28:39;;;;;;;2.90;1.17;;;;;;;7.92;67.65;99015.67;1747941;81;22002;-69
2021/05/05 03:31:05;;;;;;;3.95;1.40;;;;;;;7.95;67.67;99015.83;1755877;81;21172;-69
2021/05/05 03:33:32;;;;;;;7.70;1.47;;;;;;;7.96;67.67;99014.80;1755757;81;21133;-69
2021/05/05 03:35:58;;;;;;;4.25;0.72;;;;;;;7.97;67.67;99021.76;1747653;82;21209;-68
2021/05/05 03:38:24;;;;;;;3.72;0.98;;;;;;;7.98;67.67;99015.45;1747540;82;21133;-68
2021/05/05 03:40:51;;;;;;;3.22;1.10;;;;;;;8.01;67.69;99005.78;1747574;82;21995;-69
2021/05/05 03:43:18;;;;;;;2.42;1.27;;;;;;;8.07;67.68;99007.67;1747513;82;21585;-68
2021/05/05 03:45:46;;;;;;;5.85;1.10;;;;;;;8.11;67.66;99010.78;1747373;82;21664;-69
2021/05/05 03:48:12;;;;;;;2.77;1.32;;;;;;;8.13;67.66;99010.90;1747399;82;21120;-69
2021/05/05 03:50:39;;;;;;;4.75;1.50;;;;;;;8.21;67.66;99013.95;1747564;82;21495;-68
2021/05/05 03:53:05;;;;;;;2.65;1.00;;;;;;;8.25;67.66;99009.41;1743192;81;22078;-68
2021/05/05 03:55:31;;;;;;;6.47;1.02;;;;;;;8.38;67.68;99013.55;1732222;82;21140;-69
2021/05/05 03:57:58;;;;;;;12.13;1.62;;;;;;;8.65;67.74;99009.81;1777299;80;21607;-69
2021/05/05 04:00:24;;;;;;;6.95;1.37;;;;;;;9.00;67.64;99017.67;1786171;80;21136;-68
2021/05/05 04:02:51;;;;;;;2.67;1.02;;;;;;;9.64;67.65;99015.28;1754046;81;21168;-69
2021/05/05 04:05:17;;;;;;;7.05;1.22;;;;;;;10.49;67.41;99016.88;1754295;81;21206;-69
2021/05/05 04:07:44;;;;;;;6.40;1.20;;;;;;;11.19;66.96;99017.59;1754418;81;21172;-69
2021/05/05 04:10:11;;;;;;;2.00;1.00;;;;;;;11.89;66.43;99018.69;1754376;81;21176;-69
2021/05/05 04:12:39;;;;;;;4.40;1.00;;;;;;;12.34;65.71;99013.61;1754252;81;21180;-70
2021/05/05 04:15:07;;;;;;;4.05;1.25;;;;;;;12.79;65.20;99016.99;1754556;81;21187;-69
2021/05/05 04:17:34;;;;;;;5.47;1.37;;;;;;;12.94;64.20;99018.02;1754341;81;21206;-70
2021/05/05 04:20:00;;;;;;;2.55;1.02;;;;;;;13.06;63.14;99017.58;1729718;81;21195;-70
2021/05/05 04:22:26;;;;;;;3.12;0.90;;;;;;;13.49;62.75;99014.92;1725796;82;21140;-70
2021/05/05 04:24:53;;;;;;;7.75;2.87;;;;;;;14.02;62.03;99019.15;1725792;82;21582;-70
2021/05/05 04:27:19;;;;;;;3.50;1.50;;;;;;;14.27;60.87;99012.32;1726000;82;21132;-70
2021/05/05 04:29:46;;;;;;;4.15;1.65;;;;;;;14.37;60.27;99009.42;1725925;82;21189;-70
2021/05/05 04:32:13;;;;;;;4.85;2.50;;;;;;;14.61;59.60;99003.59;1725852;83;21132;-70
2021/05/05 04:34:41;;;;;;;6.10;2.20;;;;;;;14.66;58.90;99010.95;1725819;82;21132;-70
2021/05/05 04:37:07;;;;;;;2.62;1.07;;;;;;;14.87;58.31;99013.09;1725690;82;21632;-70
2021/05/05 04:39:34;;;;;;;4.87;0.90;;;;;;;14.89;57.42;99008.30;1725756;81;21164;-70
2021/05/05 04:42:00;;;;;;;3.95;1.32;;;;;;;15.00;56.97;99000.27;1726049;83;21195;-70
2021/05/05 04:44:27;;;;;;;5.45;1.10;;;;;;;15.21;56.13;99012.30;1725902;81;21187;-70
2021/05/05 04:46:53;;;;;;;3.33;1.07;;;;;;;15.38;55.37;99009.72;1737031;81;21162;-70
2021/05/05 04:49:20;;;;;;;6.45;1.00;;;;;;;15.23;54.38;99002.67;1786863;80;21489;-70
2021/05/05 04:51:46;;;;;;;5.08;1.02;;;;;;;14.78;53.77;99009.09;1786947;80;21143;-70
2021/05/05 04:54:12;;;;;;;3.05;1.30;;;;;;;14.22;53.96;99018.36;1787104;80;21151;-70
2021/05/05 04:56:39;;;;;;;3.72;1.07;;;;;;;13.66;54.36;99017.83;1786824;80;21158;-70
2021/05/05 04:59:05;;;;;;;3.52;1.50;;;;;;;13.40;54.52;99021.11;1787028;80;21600;-70
2021/05/05 05:01:31;;;;;;;4.80;1.25;;;;;;;13.46;54.72;99031.45;1787084;80;21539;-70
2021/05/05 05:03:57;;;;;;;4.17;1.20;;;;;;;13.33;54.65;99027.57;1787087;80;21139;-70
2021/05/05 05:06:24;;;;;;;2.85;1.10;;;;;;;13.34;54.69;99024.66;1787186;80;21253;-70
2021/05/05 05:08:50;;;;;;;13.60;1.65;;;;;;;13.47;54.69;99015.69;1787019;80;21167;-70
2021/05/05 05:11:16;;;;;;;2.40;0.70;;;;;;;13.44;54.73;99014.80;1787155;80;21560;-70
2021/05/05 05:13:43;;;;;;;5.17;2.00;;;;;;;13.61;54.57;99012.34;1786990;80;21103;-70
2021/05/05 05:16:09;;;;;;;2.95;0.90;;;;;;;13.61;54.57;99012.34;1787089;80;21155;-70
2021/05/05 05:18:35;;;;;;;4.20;0.90;;;;;;;13.74;54.58;99005.48;1786845;79;21244;-71
2021/05/05 05:21:02;;;;;;;4.17;1.00;;;;;;;13.67;54.46;98997.52;1786883;80;21183;-70
2021/05/05 05:23:29;;;;;;;4.00;1.80;;;;;;;13.71;54.25;99009.95;1784887;79;21179;-70
2021/05/05 05:25:56;;;;;;;1.72;0.90;;;;;;;13.47;54.14;99002.29;1780115;80;21100;-70
2021/05/05 05:28:24;;;;;;;8.70;1.32;;;;;;;13.28;53.94;99000.11;1768391;80;21143;-70
2021/05/05 05:30:50;;;;;;;4.03;1.10;;;;;;;13.16;53.99;99011.23;1755891;81;21180;-70
2021/05/05 05:33:17;;;;;;;2.12;1.17;;;;;;;12.95;53.94;99004.39;1776868;80;21223;-70
2021/05/05 05:35:43;;;;;;;12.60;1.60;;;;;;;13.00;53.83;99006.42;1747356;82;21593;-70
2021/05/05 05:38:10;;;;;;;4.55;1.32;;;;;;;13.16;53.86;99005.88;1762287;80;21722;-70
2021/05/05 05:40:36;;;;;;;3.27;1.42;;;;;;;13.24;53.69;99003.44;1732358;81;21164;-70
2021/05/05 05:43:02;;;;;;;4.20;1.22;;;;;;;13.17;53.31;99010.72;1776608;78;21153;-70
2021/05/05 05:45:29;;;;;;;4.87;1.55;;;;;;;13.22;52.93;99013.05;1771902;78;21116;-70
2021/05/05 05:47:55;;;;;;;4.33;1.10;;;;;;;13.41;52.93;99016.03;1760994;80;21134;-70
2021/05/05 05:50:22;;;;;;;5.67;1.75;;;;;;;13.72;52.85;99011.59;1796052;78;21184;-70
2021/05/05 05:52:48;;;;;;;8.08;1.55;;;;;;;13.43;52.54;99023.86;1787003;80;21120;-70
2021/05/05 05:55:16;;;;;;;6.42;1.40;;;;;;;13.25;52.57;99024.66;1739656;80;22073;-70
2021/05/05 05:57:44;;;;;;;4.50;1.00;;;;;;;13.39;52.64;99028.02;1725798;82;21597;-70
2021/05/05 06:00:13;;;;;;;4.10;1.10;;;;;;;13.33;52.43;99025.72;1725745;83;21187;-70
2021/05/05 06:02:40;;;;;;;3.83;1.12;;;;;;;13.17;52.35;99020.91;1726112;83;22406;-70
2021/05/05 06:05:07;;;;;;;2.35;1.22;;;;;;;13.35;52.47;99028.16;1720687;81;21520;-70
2021/05/05 06:07:33;;;;;;;4.08;1.42;;;;;;;13.50;52.37;99013.89;1729632;83;21652;-70
2021/05/05 06:10:00;;;;;;;3.70;1.00;;;;;;;13.69;52.37;99025.41;1761554;80;21158;-71
2021/05/05 06:12:26;;;;;;;3.98;1.30;;;;;;;13.74;52.30;99033.61;1774742;80;21182;-70
2021/05/05 06:14:54;;;;;;;3.37;0.90;;;;;;;13.70;52.27;99030.56;1755895;81;21136;-70
2021/05/05 06:17:21;;;;;;;7.05;2.12;;;;;;;13.53;52.10;99032.20;1758988;81;21111;-70
2021/05/05 06:19:47;;;;;;;7.65;3.30;;;;;;;13.54;52.01;99029.00;1750140;80;21161;-71
2021/05/05 06:22:14;;;;;;;5.58;1.22;;;;;;;13.70;51.88;99039.11;1750779;81;21184;-71
2021/05/05 06:24:40;;;;;;;5.87;1.20;;;;;;;13.83;51.77;99040.30;1746507;80;21207;-70
2021/05/05 06:27:07;;;;;;;5.83;1.52;;;;;;;13.76;51.35;99034.19;1765161;80;21158;-70
2021/05/05 06:29:34;;;;;;;5.78;1.32;;;;;;;13.56;51.05;99033.09;1754212;80;21183;-70
2021/05/05 06:32:01;;;;;;;5.65;1.12;;;;;;;13.57;50.77;99035.25;1747035;80;21206;-71
2021/05/05 06:34:27;;;;;;;3.95;1.32;;;;;;;13.58;50.49;99036.34;1770258;80;21147;-71
2021/05/05 06:36:53;;;;;;;3.00;1.27;;;;;;;13.51;50.11;99051.16;1752711;81;21176;-70
2021/05/05 06:39:20;;;;;;;4.78;2.35;;;;;;;13.69;49.85;99032.94;1752702;81;21200;-70
2021/05/05 06:41:46;;;;;;;14.28;1.62;;;;;;;13.85;49.68;99035.03;1748715;81;21210;-70
2021/05/05 06:44:13;;;;;;;11.20;2.08;;;;;;;13.95;49.51;99041.20;1749477;82;21203;-70
2021/05/05 06:46:45;;;;;;;3.25;1.17;;;;;;;13.93;49.07;99021.30;1780247;80;21188;-70
2021/05/05 06:49:12;;;;;;;4.72;2.33;;;;;;;14.00;48.86;99013.20;1749344;81;21144;-70
2021/05/05 06:51:39;;;;;;;4.90;1.98;;;;;;;13.96;48.30;99020.06;1741603;81;21243;-70
2021/05/05 06:54:06;;;;;;;11.33;2.08;;;;;;;13.92;48.16;99033.61;1763119;81;21156;-70
2021/05/05 06:56:33;;;;;;;5.00;1.40;;;;;;;13.94;47.79;99018.11;1764414;81;21210;-71
2021/05/05 06:58:59;;;;;;;5.65;2.12;;;;;;;14.01;47.20;99010.80;1764347;81;21640;-70
2021/05/05 07:01:26;;;;;;;3.52;1.65;;;;;;;14.08;47.05;99016.90;1749367;82;21613;-71
2021/05/05 07:03:52;;;;;;;3.40;1.17;;;;;;;14.22;47.00;99014.34;1757310;80;21216;-71
2021/05/05 07:06:18;;;;;;;6.12;1.45;;;;;;;14.08;46.90;99003.49;1752793;81;21156;-71
2021/05/05 07:08:44;;;;;;;5.25;1.60;;;;;;;13.64;46.90;99010.03;1777444;80;22103;-71
2021/05/05 07:11:11;;;;;;;3.12;1.30;;;;;;;13.50;46.96;99013.38;1744195;81;21166;-71
2021/05/05 07:13:37;;;;;;;4.58;1.37;;;;;;;13.53;46.97;99007.27;1768832;79;21160;-70
2021/05/05 07:16:04;;;;;;;6.40;1.22;;;;;;;13.42;47.06;99015.00;1745823;82;21172;-70
2021/05/05 07:18:30;;;;;;;6.75;1.40;;;;;;;13.47;47.27;99015.14;1745249;81;21588;-70
2021/05/05 07:20:58;;;;;;;5.60;1.30;;;;;;;13.29;47.26;99011.64;1781841;80;22046;-70
2021/05/05 07:23:26;;;;;;;4.08;1.00;;;;;;;13.05;47.43;99019.98;1771194;80;21226;-70
2021/05/05 07:25:52;;;;;;;6.08;1.52;;;;;;;12.88;47.74;99016.19;1778673;80;21160;-70
2021/05/05 07:28:19;;;;;;;5.37;1.02;;;;;;;12.66;48.03;99014.94;1738883;82;21180;-70
2021/05/05 07:30:45;;;;;;;7.75;1.55;;;;;;;12.60;48.35;99007.77;1781609;80;21183;-70
2021/05/05 07:33:14;;;;;;;6.37;1.55;;;;;;;12.58;48.54;99013.86;1758053;81;21128;-70
2021/05/05 07:35:48;;;;;;;7.95;2.15;;;;;;;12.47;48.73;99014.86;1765650;81;21738;-70
2021/05/05 07:44:37;;;;;;;4.70;1.30;;;;;;;12.02;49.60;99013.27;1756966;81;21552;-71
2021/05/05 07:49:15;;;;;;;5.75;1.85;;;;;;;12.13;50.18;99010.44;1840722;76;38850;-70
2021/05/05 07:51:42;;;;;;;5.20;1.85;;;;;;;12.39;50.64;99004.41;1828434;77;21183;-70
2021/05/05 07:54:08;;;;;;;5.55;1.62;;;;;;;12.58;50.87;99009.84;1829471;76;22174;-70
2021/05/05 07:56:35;;;;;;;2.50;0.98;;;;;;;12.75;51.07;99009.61;1823456;77;21601;-70
2021/05/05 07:59:02;;;;;;;2.47;1.37;;;;;;;13.02;51.25;99005.67;1825003;76;21594;-70
2021/05/05 08:01:29;;;;;;;7.90;3.00;;;;;;;13.29;51.40;98991.05;1832599;76;21144;-71
2021/05/05 08:03:56;;;;;;;8.15;1.70;;;;;;;13.65;51.51;98995.57;1765832;79;21151;-70
2021/05/05 08:06:23;;;;;;;2.22;0.95;;;;;;;13.79;51.32;98997.59;1765035;78;21247;-70
2021/05/05 08:08:49;;;;;;;7.20;1.70;;;;;;;13.54;51.13;99012.93;1774430;79;21146;-70
2021/05/05 08:11:16;;;;;;;8.63;1.95;;;;;;;13.15;51.04;99014.97;1768307;79;21663;-70
2021/05/05 08:13:43;;;;;;;6.10;1.37;;;;;;;12.84;51.09;99021.70;1774585;79;21165;-70
2021/05/05 08:16:11;;;;;;;3.42;1.10;;;;;;;12.56;51.10;99029.31;1768384;79;21097;-70
2021/05/05 08:18:37;;;;;;;2.25;1.15;;;;;;;12.38;51.23;99030.05;1776012;79;22159;-70
2021/05/05 08:21:05;;;;;;;4.55;1.25;;;;;;;12.30;51.30;99031.11;1774245;79;21206;-70
2021/05/05 08:23:32;;;;;;;5.08;1.87;;;;;;;12.29;51.35;99028.64;1770422;79;21592;-70
2021/05/05 08:25:58;;;;;;;2.60;1.35;;;;;;;12.36;51.43;99020.06;1768213;79;21616;-70
2021/05/05 08:28:24;;;;;;;2.87;1.10;;;;;;;12.52;51.46;99015.55;1767996;81;21581;-70
2021/05/05 08:30:51;;;;;;;4.00;1.07;;;;;;;12.68;51.32;99018.20;1799472;79;21234;-70
2021/05/05 08:33:19;;;;;;;3.62;1.12;;;;;;;12.78;51.08;99015.86;1799884;79;21165;-70
2021/05/05 08:35:45;;;;;;;4.55;1.55;;;;;;;12.88;50.83;99017.52;1809435;79;21187;-70
2021/05/05 08:38:12;;;;;;;3.12;1.12;;;;;;;13.25;50.66;99005.91;1781566;79;21588;-70
2021/05/05 08:40:38;;;;;;;4.92;1.15;;;;;;;13.57;50.09;99004.45;1783600;80;21163;-70
2021/05/05 08:43:04;;;;;;;3.15;1.30;;;;;;;13.56;49.68;99014.85;1791666;78;21249;-70
2021/05/05 08:45:31;;;;;;;3.62;1.30;;;;;;;13.61;49.54;99013.16;1788687;78;21188;-70
2021/05/05 08:48:02;;;;;;;3.87;1.70;;;;;;;13.72;49.53;99014.28;1792015;78;21191;-70
2021/05/05 08:50:30;;;;;;;6.28;1.67;;;;;;;13.73;49.45;99018.57;1741584;81;21143;-70
2021/05/05 08:52:57;;;;;;;6.83;1.85;;;;;;;13.60;49.24;99017.39;1774452;79;21220;-70
2021/05/05 08:55:24;;;;;;;8.50;1.40;;;;;;;13.52;49.07;99017.16;1766153;79;22047;-70
2021/05/05 08:57:51;;;;;;;3.25;1.67;;;;;;;13.33;49.05;99015.52;1753842;80;21171;-70
2021/05/05 09:00:23;;;;;;;10.00;2.65;;;;;;;13.53;49.15;99020.66;1782613;80;21153;-70
2021/05/05 09:02:50;;;;;;;32.85;10.88;;;;;;;13.59;48.97;99026.45;1745364;80;21147;-70
2021/05/05 09:05:17;;;;;;;8.48;3.02;;;;;;;13.83;48.79;99021.54;1754548;80;21121;-70
2021/05/05 09:07:45;;;;;;;5.35;1.65;;;;;;;14.14;48.67;99024.06;1750480;80;21569;-70
2021/05/05 09:10:14;;;;;;;3.77;1.47;;;;;;;14.47;48.47;99015.05;1743862;80;21193;-70
2021/05/05 09:12:42;;;;;;;11.43;2.95;;;;;;;14.41;48.09;99006.58;1769413;79;21146;-70
2021/05/05 09:15:14;;;;;;;7.92;2.30;;;;;;;14.45;47.96;99006.94;1782687;80;21149;-70
2021/05/05 09:17:48;;;;;;;3.83;1.30;;;;;;;14.39;47.27;99010.55;1741915;81;21182;-70
2021/05/05 09:20:17;;;;;;;4.83;1.10;;;;;;;14.11;46.93;99004.38;1747065;80;22074;-70
2021/05/05 09:23:02;;;;;;;6.30;1.75;;;;;;;14.07;46.42;99003.73;1754144;80;21389;-70
2021/05/05 09:25:37;;;;;;;3.50;1.15;;;;;;;14.10;46.20;98996.06;1773094;80;21638;-70
2021/05/05 09:28:22;;;;;;;4.42;1.55;;;;;;;14.26;45.99;98987.37;1739561;80;22028;-70
2021/05/05 09:30:54;;;;;;;2.70;1.10;;;;;;;14.44;45.90;99004.78;1769639;78;21166;-70
2021/05/05 09:33:33;;;;;;;6.03;1.30;;;;;;;14.71;45.65;98989.59;1783334;79;21189;-71
2021/05/05 09:36:02;;;;;;;3.80;1.10;;;;;;;14.64;45.04;98986.20;1758526;79;21652;-70
2021/05/05 09:38:49;;;;;;;4.08;1.30;;;;;;;14.46;44.44;98988.47;1777702;80;21179;-70
2021/05/05 09:41:27;;;;;;;5.67;2.02;;;;;;;14.27;44.30;98993.55;1741067;81;21382;-70
2021/05/05 09:44:01;;;;;;;4.47;1.50;;;;;;;14.05;44.15;98985.19;1754763;81;22284;-70
2021/05/05 09:46:46;;;;;;;3.15;0.93;;;;;;;14.21;44.40;98992.61;1765034;81;22463;-70
2021/05/05 09:49:27;;;;;;;3.80;1.40;;;;;;;14.17;44.32;98990.08;1762945;81;21552;-70
2021/05/05 09:52:11;;;;;;;2.58;1.10;;;;;;;14.33;44.50;98979.22;1774751;80;21168;-71
2021/05/05 09:54:41;;;;;;;3.92;1.22;;;;;;;14.66;44.38;98989.49;1754793;80;21203;-71
2021/05/05 09:57:23;;;;;;;1.92;0.88;;;;;;;15.02;44.39;98982.59;1744934;81;21640;-72
2021/05/05 10:00:17;;;;;;;6.10;1.22;;;;;;;15.11;43.81;98987.90;1753440;80;21351;-72
2021/05/05 10:02:46;;;;;;;5.80;1.82;;;;;;;15.11;43.81;98987.90;1757884;80;21679;-72
2021/05/05 10:05:15;;;;;;;2.08;0.75;;;;;;;14.67;42.99;98988.45;1762736;80;21147;-71
2021/05/05 10:08:00;;;;;;;4.65;1.75;;;;;;;14.19;42.75;98978.59;1760606;80;21183;-71
2021/05/05 10:10:35;;;;;;;2.30;0.95;;;;;;;14.06;42.72;99000.23;1763091;80;22349;-71
2021/05/05 10:13:03;;;;;;;2.95;0.85;;;;;;;13.80;42.26;99000.03;1769014;80;21292;-69
2021/05/05 10:15:34;;;;;;;5.40;1.10;;;;;;;13.58;42.16;99009.56;1757527;81;21180;-69
2021/05/05 10:18:00;;;;;;;4.17;1.42;;;;;;;13.36;41.79;99015.90;1760963;81;21202;-69
2021/05/05 10:20:28;;;;;;;4.95;2.12;;;;;;;13.19;41.74;99012.16;1767060;80;21550;-69
2021/05/05 10:22:58;;;;;;;5.22;2.30;;;;;;;13.06;41.66;99012.22;1733546;81;21192;-68
2021/05/05 10:25:25;;;;;;;2.12;1.00;;;;;;;13.13;41.79;99009.52;1756855;81;26384;-69
2021/05/05 10:27:51;;;;;;;3.15;1.70;;;;;;;13.32;41.91;99016.03;1764757;80;21208;-68
2021/05/05 10:30:25;;;;;;;3.20;1.30;;;;;;;13.86;42.01;98998.34;1767255;80;21566;-69
2021/05/05 10:32:51;;;;;;;3.77;1.00;;;;;;;14.27;41.90;99005.10;1761528;81;21656;-69
2021/05/05 10:35:19;;;;;;;4.90;1.25;;;;;;;14.43;41.32;98999.11;1778012;80;21168;-68
2021/05/05 10:37:49;;;;;;;5.65;1.35;;;;;;;14.28;40.97;99006.75;1757457;80;22076;-69
2021/05/05 10:40:20;;;;;;;8.55;1.95;;;;;;;14.65;41.06;99006.62;1753573;81;21636;-69
2021/05/05 10:42:56;;;;;;;3.75;1.07;;;;;;;14.87;40.62;99013.92;1753117;81;21167;-69
2021/05/05 10:45:30;;;;;;;12.75;2.20;;;;;;;14.82;40.18;99012.95;1758224;80;21136;-69
2021/05/05 10:48:14;;;;;;;3.83;1.25;;;;;;;14.57;39.86;99001.06;1748346;81;21144;-69
2021/05/05 10:50:52;;;;;;;2.95;1.30;;;;;;;14.70;39.95;99008.94;1777451;80;21238;-69
2021/05/05 10:53:27;;;;;;;4.65;1.42;;;;;;;14.74;39.65;99007.95;1777529;80;21133;-69
2021/05/05 10:55:56;;;;;;;4.37;1.05;;;;;;;14.57;39.35;99009.63;1777598;80;21163;-69
2021/05/05 10:58:26;;;;;;;5.58;1.05;;;;;;;14.44;39.50;99006.12;1777641;80;21231;-69
2021/05/05 11:01:05;;;;;;;3.77;1.40;;;;;;;14.63;39.65;99006.05;1777643;80;21536;-69
2021/05/05 11:03:49;;;;;;;8.18;1.42;;;;;;;14.73;39.59;99006.30;1780358;80;21217;-69
2021/05/05 11:06:40;;;;;;;4.10;1.20;;;;;;;14.80;39.42;98994.42;1782803;80;21183;-69
2021/05/05 11:09:18;;;;;;;7.62;1.10;;;;;;;14.89;39.44;98997.56;1782693;80;21139;-69
2021/05/05 11:11:47;;;;;;;6.40;1.55;;;;;;;14.85;39.36;99007.95;1782832;80;21151;-69
2021/05/05 11:14:32;;;;;;;6.75;1.27;;;;;;;14.85;39.27;99000.41;1783081;80;21188;-69
2021/05/05 11:17:03;;;;;;;3.58;1.25;;;;;;;15.06;39.40;99002.53;1782586;80;21269;-69
2021/05/05 11:19:44;;;;;;;2.60;1.07;;;;;;;15.06;39.71;99002.53;1782609;80;22545;-69
2021/05/05 11:22:27;;;;;;;8.10;2.85;;;;;;;15.06;39.71;99002.53;1782824;80;21188;-69
2021/05/05 11:24:53;;;;;;;5.17;2.67;;;;;;;14.95;38.98;99002.03;1789912;80;21455;-69
2021/05/05 11:27:48;;;;;;;14.60;5.83;;;;;;;15.00;39.06;99002.13;1761790;80;21144;-69
2021/05/05 11:30:40;;;;;;;3.85;1.32;;;;;;;14.92;38.81;98989.87;1756854;80;21241;-70
2021/05/05 11:33:09;;;;;;;12.47;2.37;;;;;;;14.69;38.36;98999.76;1781223;80;21172;-69
2021/05/05 11:35:37;;;;;;;20.40;6.35;;;;;;;14.55;38.61;99017.11;1765193;80;21611;-69
2021/05/05 11:38:19;;;;;;;15.23;5.45;;;;;;;14.63;38.91;99019.47;1772994;79;21187;-69
2021/05/05 11:41:03;;;;;;;7.45;2.60;;;;;;;14.88;39.60;99004.00;1756494;80;21620;-69
2021/05/05 11:43:31;;;;;;;8.83;2.10;;;;;;;14.88;39.60;99004.00;1676342;85;21268;-69
2021/05/05 11:46:00;;;;;;;7.45;2.35;;;;;;;14.75;39.50;99012.25;1680671;85;21687;-69
2021/05/05 11:48:34;;;;;;;15.43;3.08;;;;;;;14.37;39.69;99020.15;1675043;85;21183;-69
2021/05/05 11:51:01;;;;;;;6.22;1.32;;;;;;;14.19;39.88;99020.67;1675283;85;21944;-69